Time;durP1;ratioP1;P1;durP2;ratioP2;P2;SDS_P1;SDS_P2;PMS_P1;PMS_P2;Temp;Humidity;BMP_temperature;BMP_pressure;BME280_temperature;BME280_humidity;BME280_pressure;Samples;Min_cycle;Max_cycle;Signal;HPM_P1;HPM_P2
2022/01/20 00:01:35;;;;;;;99.70;47.97;;;;;;;;;;6258762;28;20509;-65
2022/01/20 00:04:44;;;;;;;180.48;85.95;;;;;;;;;;6257904;28;20048;-65
2022/01/20 00:08:03;;;;;;;184.70;85.32;;;;;;;;;;6260845;28;20052;-65
2022/01/20 00:27:51;;;;;;;100.90;48.72;;;;;;;;;;6257647;28;20075;-66
2022/01/20 00:31:02;;;;;;;96.38;48.67;;;;;;;;;;6250991;28;20041;-66
2022/01/20 00:34:13;;;;;;;99.20;47.33;;;;;;;;;;6281959;28;20106;-66
2022/01/20 00:37:16;;;;;;;99.18;46.80;;;;;;;;;;6260344;28;20508;-66
2022/01/20 00:40:19;;;;;;;104.82;48.72;;;;;;;;;;6266023;28;20049;-66
2022/01/20 00:43:21;;;;;;;95.38;46.15;;;;;;;;;;6260188;28;20045;-66
2022/01/20 00:46:22;;;;;;;100.05;48.67;;;;;;;;;;6255586;28;20153;-66
2022/01/20 00:49:24;;;;;;;97.03;48.45;;;;;;;;;;6262293;28;20175;-66
2022/01/20 00:52:25;;;;;;;105.22;50.30;;;;;;;;;;6257844;28;20136;-66
2022/01/20 00:55:28;;;;;;;91.28;46.30;;;;;;;;;;6255319;28;20126;-66
2022/01/20 00:58:30;;;;;;;90.63;46.95;;;;;;;;;;6252980;28;20075;-66
2022/01/20 01:01:32;;;;;;;92.03;45.08;;;;;;;;;;6254568;28;20179;-67
2022/01/20 01:04:33;;;;;;;94.93;47.63;;;;;;;;;;6257145;28;20052;-66
2022/01/20 01:10:52;;;;;;;95.93;49.65;;;;;;;;;;6254957;28;20128;-66
2022/01/20 01:13:55;;;;;;;99.05;49.03;;;;;;;;;;6256500;28;20114;-67
2022/01/20 01:20:19;;;;;;;96.80;48.30;;;;;;;;;;6261417;28;20056;-66
2022/01/20 01:23:21;;;;;;;94.47;48.17;;;;;;;;;;6254230;28;20452;-67
2022/01/20 01:26:28;;;;;;;98.78;50.97;;;;;;;;;;6257939;28;20521;-67
2022/01/20 01:29:47;;;;;;;103.82;52.70;;;;;;;;;;6252921;28;20139;-66
2022/01/20 01:32:50;;;;;;;103.55;52.28;;;;;;;;;;6259230;28;20547;-66
2022/01/20 01:35:56;;;;;;;98.57;52.70;;;;;;;;;;6259042;28;20266;-66
2022/01/20 01:38:58;;;;;;;94.47;51.63;;;;;;;;;;6255640;28;20057;-66
2022/01/20 01:42:01;;;;;;;96.72;51.22;;;;;;;;;;6266301;28;20052;-66
2022/01/20 01:45:07;;;;;;;98.50;49.75;;;;;;;;;;6253288;28;20569;-66
2022/01/20 01:48:09;;;;;;;97.50;51.08;;;;;;;;;;6256607;28;20057;-66
2022/01/20 01:51:11;;;;;;;91.45;47.90;;;;;;;;;;6260559;28;20068;-66
2022/01/20 01:54:14;;;;;;;97.60;49.22;;;;;;;;;;6258001;28;20187;-66
2022/01/20 01:57:17;;;;;;;102.60;51.25;;;;;;;;;;6255156;28;20183;-66
2022/01/20 02:00:19;;;;;;;97.93;51.42;;;;;;;;;;6264028;28;20182;-67
2022/01/20 02:03:21;;;;;;;98.80;50.88;;;;;;;;;;6256466;28;20501;-66
2022/01/20 02:19:54;;;;;;;95.57;51.05;;;;;;;;;;6254802;28;20075;-66
2022/01/20 02:22:55;;;;;;;99.03;49.50;;;;;;;;;;6255294;28;20119;-66
2022/01/20 02:25:57;;;;;;;96.43;50.22;;;;;;;;;;6252295;28;20054;-66
2022/01/20 02:28:59;;;;;;;96.40;50.75;;;;;;;;;;6262096;28;20076;-66
2022/01/20 02:32:01;;;;;;;99.90;51.72;;;;;;;;;;6256178;28;20052;-66
2022/01/20 02:35:07;;;;;;;99.90;50.30;;;;;;;;;;6251190;28;20049;-66
2022/01/20 02:38:14;;;;;;;97.32;50.00;;;;;;;;;;6248094;28;20417;-66
2022/01/20 02:47:53;;;;;;;99.63;48.88;;;;;;;;;;6251385;28;20103;-67
2022/01/20 02:50:57;;;;;;;101.35;50.65;;;;;;;;;;6254698;28;20050;-66
2022/01/20 02:53:59;;;;;;;;;;;;;;;;;;6253906;28;20052;-66
2022/01/20 02:57:00;;;;;;;93.82;46.85;;;;;;;;;;6253102;28;20015;-66
2022/01/20 03:00:03;;;;;;;91.05;48.97;;;;;;;;;;6269245;28;20052;-66
2022/01/20 03:03:04;;;;;;;90.85;48.05;;;;;;;;;;6262195;28;20115;-66
2022/01/20 03:06:08;;;;;;;98.57;49.78;;;;;;;;;;6254084;28;20115;-66
2022/01/20 03:09:09;;;;;;;93.63;48.28;;;;;;;;;;6264834;28;20142;-67
2022/01/20 03:12:11;;;;;;;96.88;49.58;;;;;;;;;;6264490;28;20136;-66
2022/01/20 03:15:12;;;;;;;92.97;50.25;;;;;;;;;;6256711;28;20157;-66
2022/01/20 03:18:14;;;;;;;87.13;47.97;;;;;;;;;;6259993;28;20045;-65
2022/01/20 03:21:17;;;;;;;89.90;47.58;;;;;;;;;;6262409;28;20164;-66
2022/01/20 03:24:19;;;;;;;93.97;47.67;;;;;;;;;;6256023;28;20120;-66
2022/01/20 03:27:20;;;;;;;95.20;49.13;;;;;;;;;;6256066;28;20125;-66
2022/01/20 03:30:23;;;;;;;95.80;49.08;;;;;;;;;;6253869;28;20069;-66
2022/01/20 03:33:24;;;;;;;84.50;47.30;;;;;;;;;;6253197;28;20049;-66
2022/01/20 03:36:27;;;;;;;88.35;47.55;;;;;;;;;;6256914;28;20402;-66
2022/01/20 03:39:29;;;;;;;89.10;47.03;;;;;;;;;;6260917;28;20130;-66
2022/01/20 03:42:30;;;;;;;91.72;47.72;;;;;;;;;;6265752;28;21439;-66
2022/01/20 03:45:32;;;;;;;91.38;49.38;;;;;;;;;;6258809;28;20491;-66
2022/01/20 03:48:38;;;;;;;91.10;49.22;;;;;;;;;;6263864;28;20057;-65
2022/01/20 03:51:41;;;;;;;85.65;47.03;;;;;;;;;;6260967;28;20052;-65
2022/01/20 03:54:43;;;;;;;92.07;50.00;;;;;;;;;;6256823;28;20550;-66
2022/01/20 03:57:44;;;;;;;89.40;47.38;;;;;;;;;;6258178;28;20092;-66
2022/01/20 04:00:46;;;;;;;97.55;49.45;;;;;;;;;;6259031;28;20135;-67
2022/01/20 04:03:48;;;;;;;94.13;50.20;;;;;;;;;;6263216;28;20114;-66
2022/01/20 04:06:51;;;;;;;98.25;49.53;;;;;;;;;;6261773;28;20118;-66
2022/01/20 04:09:52;;;;;;;93.63;48.10;;;;;;;;;;6258731;28;20091;-67
2022/01/20 04:12:54;;;;;;;94.20;50.17;;;;;;;;;;6258614;28;20084;-66
2022/01/20 04:15:55;;;;;;;96.18;50.05;;;;;;;;;;6258523;28;20068;-66
2022/01/20 04:18:59;;;;;;;96.20;49.88;;;;;;;;;;6268855;28;20497;-66
2022/01/20 04:22:03;;;;;;;94.95;48.67;;;;;;;;;;6265967;28;20056;-66
2022/01/20 04:25:05;;;;;;;91.60;48.72;;;;;;;;;;6259996;28;20045;-66
2022/01/20 04:28:07;;;;;;;90.18;45.42;;;;;;;;;;6262787;28;20084;-66
2022/01/20 04:31:09;;;;;;;91.45;47.00;;;;;;;;;;6263754;28;20413;-66
2022/01/20 04:34:12;;;;;;;99.07;47.65;;;;;;;;;;6260254;28;20124;-65
2022/01/20 04:37:15;;;;;;;93.05;45.67;;;;;;;;;;6264755;28;20102;-66
2022/01/20 04:40:17;;;;;;;95.22;46.63;;;;;;;;;;6264119;28;20049;-66
2022/01/20 04:43:20;;;;;;;90.00;45.25;;;;;;;;;;6258318;28;20128;-65
2022/01/20 04:46:29;;;;;;;95.40;46.50;;;;;;;;;;6258535;28;20049;-65
2022/01/20 04:59:26;;;;;;;90.40;41.53;;;;;;;;;;6256472;28;20080;-66
2022/01/20 05:02:29;;;;;;;85.75;40.35;;;;;;;;;;6257173;28;20088;-66
2022/01/20 05:05:30;;;;;;;87.35;41.25;;;;;;;;;;6260559;28;20124;-66
2022/01/20 05:08:33;;;;;;;68.70;33.60;;;;;;;;;;6264195;28;20495;-66
2022/01/20 05:11:41;;;;;;;70.50;32.83;;;;;;;;;;6259600;28;20049;-66
2022/01/20 05:14:42;;;;;;;65.55;31.45;;;;;;;;;;6261275;28;20045;-66
2022/01/20 05:17:44;;;;;;;67.97;33.45;;;;;;;;;;6264176;28;20131;-66
2022/01/20 05:20:45;;;;;;;64.57;30.77;;;;;;;;;;6257232;28;20128;-67
2022/01/20 05:23:48;;;;;;;62.58;30.85;;;;;;;;;;6258053;28;20045;-66
2022/01/20 05:26:51;;;;;;;79.65;40.63;;;;;;;;;;6258336;28;20522;-66
2022/01/20 05:29:53;;;;;;;89.50;43.75;;;;;;;;;;6257857;28;20056;-66
2022/01/20 05:32:55;;;;;;;99.18;45.45;;;;;;;;;;6260731;28;20175;-66
2022/01/20 05:35:56;;;;;;;94.25;45.70;;;;;;;;;;6257598;28;20128;-66
2022/01/20 05:38:59;;;;;;;102.63;48.90;;;;;;;;;;6257761;28;20080;-66
2022/01/20 05:42:01;;;;;;;101.63;46.20;;;;;;;;;;6257449;28;20489;-66
2022/01/20 05:45:04;;;;;;;95.75;46.58;;;;;;;;;;6258053;28;20123;-66
2022/01/20 05:48:13;;;;;;;89.40;45.53;;;;;;;;;;6257897;28;20049;-66
2022/01/20 05:51:15;;;;;;;100.53;49.65;;;;;;;;;;6258804;28;20052;-66
2022/01/20 05:54:18;;;;;;;93.95;46.45;;;;;;;;;;6259470;28;20515;-66
2022/01/20 05:57:19;;;;;;;109.22;50.45;;;;;;;;;;6256467;28;20053;-66
2022/01/20 06:00:24;;;;;;;98.88;46.75;;;;;;;;;;6257047;28;20176;-66
2022/01/20 06:03:37;;;;;;;;;;;;;;;;;;6259047;28;20543;-66
2022/01/20 06:06:39;;;;;;;93.88;46.85;;;;;;;;;;6263954;28;19921;-65
2022/01/20 06:09:42;;;;;;;94.30;47.25;;;;;;;;;;6261519;28;20172;-67
2022/01/20 06:12:43;;;;;;;95.18;47.60;;;;;;;;;;6255094;28;20103;-66
2022/01/20 06:15:45;;;;;;;99.35;46.42;;;;;;;;;;6257091;28;20120;-66
2022/01/20 06:18:47;;;;;;;102.35;50.42;;;;;;;;;;6259077;28;20124;-66
2022/01/20 06:21:48;;;;;;;98.47;49.60;;;;;;;;;;6259171;28;20119;-66
2022/01/20 06:24:51;;;;;;;105.97;51.10;;;;;;;;;;6258912;28;20056;-66
2022/01/20 06:27:53;;;;;;;100.05;47.83;;;;;;;;;;6258687;28;20130;-65
2022/01/20 06:30:54;;;;;;;94.78;48.88;;;;;;;;;;6262945;28;20203;-66
2022/01/20 06:33:56;;;;;;;104.13;49.33;;;;;;;;;;6259506;28;20556;-66
2022/01/20 06:36:57;;;;;;;104.15;48.47;;;;;;;;;;6256895;28;20512;-66
2022/01/20 06:40:01;;;;;;;102.72;50.58;;;;;;;;;;6255736;28;20155;-66
2022/01/20 06:43:03;;;;;;;104.18;49.20;;;;;;;;;;6258469;28;20183;-66
2022/01/20 06:46:04;;;;;;;100.55;47.40;;;;;;;;;;6262067;28;20519;-67
2022/01/20 06:49:06;;;;;;;97.55;47.35;;;;;;;;;;6260958;28;20152;-66
2022/01/20 06:52:08;;;;;;;98.30;48.08;;;;;;;;;;6258109;28;20054;-67
2022/01/20 06:55:13;;;;;;;92.90;45.63;;;;;;;;;;6258508;28;20065;-66
2022/01/20 06:58:15;;;;;;;96.70;47.95;;;;;;;;;;6257006;28;20558;-66
2022/01/20 07:01:16;;;;;;;96.68;45.65;;;;;;;;;;6253104;28;20076;-66
2022/01/20 07:04:18;;;;;;;89.68;44.95;;;;;;;;;;6262565;28;20060;-66
2022/01/20 07:07:20;;;;;;;86.82;41.08;;;;;;;;;;6258225;28;20556;-66
2022/01/20 07:10:23;;;;;;;83.47;42.13;;;;;;;;;;6261986;28;20085;-66
2022/01/20 07:13:25;;;;;;;84.97;41.33;;;;;;;;;;6258058;28;20131;-66
2022/01/20 07:16:26;;;;;;;66.70;33.22;;;;;;;;;;6261192;28;20128;-66
2022/01/20 07:19:28;;;;;;;61.35;28.15;;;;;;;;;;6257985;28;20127;-66
2022/01/20 07:22:29;;;;;;;68.90;33.80;;;;;;;;;;6258192;28;20124;-65
2022/01/20 07:25:32;;;;;;;73.45;35.03;;;;;;;;;;6257013;28;20519;-66
2022/01/20 07:28:34;;;;;;;87.25;41.88;;;;;;;;;;6257951;28;20124;-65
2022/01/20 07:31:36;;;;;;;89.88;45.33;;;;;;;;;;6259187;28;20130;-66
2022/01/20 07:34:37;;;;;;;93.53;44.30;;;;;;;;;;6259304;28;20473;-66
2022/01/20 07:37:39;;;;;;;94.40;45.22;;;;;;;;;;6256164;28;20073;-65
2022/01/20 07:40:42;;;;;;;101.13;47.35;;;;;;;;;;6258829;28;20056;-65
2022/01/20 07:43:44;;;;;;;92.25;44.88;;;;;;;;;;6258048;28;20501;-66
2022/01/20 07:46:45;;;;;;;94.00;45.45;;;;;;;;;;6257102;28;20133;-65
2022/01/20 07:49:47;;;;;;;89.40;45.55;;;;;;;;;;6258464;28;20474;-65
2022/01/20 07:52:49;;;;;;;92.85;46.60;;;;;;;;;;6262119;28;20061;-65
2022/01/20 07:55:52;;;;;;;90.50;45.60;;;;;;;;;;6254362;28;20087;-65
2022/01/20 07:58:54;;;;;;;93.23;47.63;;;;;;;;;;6257387;28;20053;-65
2022/01/20 08:01:55;;;;;;;96.38;48.80;;;;;;;;;;6256733;28;20057;-65
2022/01/20 08:04:57;;;;;;;103.50;50.28;;;;;;;;;;6262486;28;20508;-65
2022/01/20 08:07:58;;;;;;;100.70;49.67;;;;;;;;;;6260901;28;20513;-66
2022/01/20 08:11:01;;;;;;;101.57;50.15;;;;;;;;;;6255960;28;20122;-65
2022/01/20 08:14:03;;;;;;;106.63;52.25;;;;;;;;;;6260944;28;20053;-64
2022/01/20 08:17:04;;;;;;;104.57;50.65;;;;;;;;;;6269000;28;20041;-65
2022/01/20 08:20:07;;;;;;;103.70;49.17;;;;;;;;;;6254965;28;20095;-64
2022/01/20 08:23:09;;;;;;;101.95;49.60;;;;;;;;;;6259142;28;20090;-65
2022/01/20 08:26:12;;;;;;;95.05;49.10;;;;;;;;;;6261458;28;20044;-66
2022/01/20 08:29:13;;;;;;;99.55;49.40;;;;;;;;;;6260222;28;20629;-66
2022/01/20 08:32:15;;;;;;;97.65;48.65;;;;;;;;;;6263459;28;20134;-65
2022/01/20 08:35:17;;;;;;;97.05;48.92;;;;;;;;;;6260978;28;20497;-65
2022/01/20 08:38:19;;;;;;;101.38;50.63;;;;;;;;;;6257038;28;20084;-65
2022/01/20 08:41:22;;;;;;;99.80;50.28;;;;;;;;;;6251558;28;20061;-65
2022/01/20 08:44:24;;;;;;;105.32;48.10;;;;;;;;;;6258787;28;20512;-63
2022/01/20 08:47:26;;;;;;;105.55;51.45;;;;;;;;;;6255125;28;20213;-65
2022/01/20 08:50:30;;;;;;;105.55;52.13;;;;;;;;;;6257250;28;20057;-65
2022/01/20 08:53:32;;;;;;;109.70;51.30;;;;;;;;;;6253537;28;20682;-65
2022/01/20 08:56:35;;;;;;;113.82;52.05;;;;;;;;;;6259805;28;20527;-65
2022/01/20 08:59:40;;;;;;;102.80;50.65;;;;;;;;;;6256240;28;20049;-64
2022/01/20 09:02:42;;;;;;;107.95;52.28;;;;;;;;;;6255316;28;20072;-65
2022/01/20 09:05:44;;;;;;;109.35;51.25;;;;;;;;;;6256014;28;20095;-65
2022/01/20 09:08:45;;;;;;;104.05;50.10;;;;;;;;;;6257744;28;20084;-65
2022/01/20 09:12:15;;;;;;;101.13;50.65;;;;;;;;;;6261022;28;20045;-65
2022/01/20 09:15:28;;;;;;;103.05;51.00;;;;;;;;;;6258817;28;20055;-66
2022/01/20 09:18:29;;;;;;;101.15;50.97;;;;;;;;;;6263378;28;20049;-65
2022/01/20 09:21:31;;;;;;;102.22;51.40;;;;;;;;;;6262968;28;20048;-65
2022/01/20 09:24:32;;;;;;;100.25;48.75;;;;;;;;;;6265608;28;20075;-65
2022/01/20 09:27:36;;;;;;;101.45;50.47;;;;;;;;;;6266210;28;20084;-66
2022/01/20 09:30:40;;;;;;;100.65;50.55;;;;;;;;;;6260379;28;20056;-65
2022/01/20 09:33:42;;;;;;;105.10;49.95;;;;;;;;;;6260667;28;20548;-65
2022/01/20 09:36:44;;;;;;;116.05;53.17;;;;;;;;;;6259662;28;20537;-65
2022/01/20 09:39:46;;;;;;;109.03;52.35;;;;;;;;;;6256290;28;20077;-65
2022/01/20 09:42:49;;;;;;;110.45;51.42;;;;;;;;;;6251655;28;20080;-65
2022/01/20 09:45:54;;;;;;;112.72;53.50;;;;;;;;;;6259134;28;20065;-65
2022/01/20 09:48:56;;;;;;;117.20;55.03;;;;;;;;;;6257015;28;20132;-64
2022/01/20 09:51:57;;;;;;;122.38;54.47;;;;;;;;;;6261381;28;20191;-65
2022/01/20 09:54:59;;;;;;;123.72;55.08;;;;;;;;;;6256423;28;20132;-65
2022/01/20 09:58:03;;;;;;;114.97;52.55;;;;;;;;;;6261789;28;20052;-64
2022/01/20 10:01:04;;;;;;;119.85;54.15;;;;;;;;;;6259814;28;20405;-65
2022/01/20 10:04:07;;;;;;;116.68;54.78;;;;;;;;;;6259497;28;20128;-65
2022/01/20 10:07:10;;;;;;;120.57;54.55;;;;;;;;;;6257766;28;20191;-65
2022/01/20 10:10:12;;;;;;;111.57;51.17;;;;;;;;;;6259848;28;20049;-65
2022/01/20 10:13:16;;;;;;;107.40;50.78;;;;;;;;;;6259580;28;20063;-65
2022/01/20 10:16:18;;;;;;;114.63;52.17;;;;;;;;;;6256974;28;20175;-65
2022/01/20 10:19:24;;;;;;;102.78;49.75;;;;;;;;;;6255376;28;20049;-64
2022/01/20 10:22:26;;;;;;;109.72;50.47;;;;;;;;;;6257489;28;20135;-65
2022/01/20 10:25:28;;;;;;;106.30;51.60;;;;;;;;;;6255305;28;20041;-65
2022/01/20 10:28:31;;;;;;;107.68;53.08;;;;;;;;;;6258895;28;20052;-65
2022/01/20 10:31:36;;;;;;;110.60;52.23;;;;;;;;;;6261674;28;20187;-65
2022/01/20 10:34:37;;;;;;;;;;;;;;;;;;6262477;28;20135;-64
2022/01/20 10:37:39;;;;;;;106.50;48.15;;;;;;;;;;6249490;28;19960;-64
2022/01/20 10:40:48;;;;;;;104.68;50.90;;;;;;;;;;6259743;28;20048;-66
2022/01/20 10:44:00;;;;;;;97.55;48.42;;;;;;;;;;6258509;28;20041;-65
2022/01/20 10:47:05;;;;;;;103.93;50.97;;;;;;;;;;6258276;28;20130;-65
2022/01/20 10:50:14;;;;;;;96.75;48.05;;;;;;;;;;6258957;28;20079;-65
2022/01/20 10:53:20;;;;;;;103.57;51.22;;;;;;;;;;6254620;28;20075;-66
2022/01/20 10:56:22;;;;;;;92.90;48.78;;;;;;;;;;6263540;28;20108;-65
2022/01/20 10:59:25;;;;;;;98.57;49.25;;;;;;;;;;6250912;28;20132;-65
2022/01/20 11:02:29;;;;;;;100.32;49.45;;;;;;;;;;6254564;28;20085;-65
2022/01/20 11:05:31;;;;;;;102.55;48.75;;;;;;;;;;6261725;28;20041;-65
2022/01/20 11:08:32;;;;;;;97.30;48.20;;;;;;;;;;6261942;28;20417;-64
2022/01/20 11:11:34;;;;;;;96.03;46.85;;;;;;;;;;6255615;28;20115;-65
2022/01/20 11:14:38;;;;;;;85.90;46.10;;;;;;;;;;6259623;28;20080;-65
2022/01/20 11:17:41;;;;;;;84.80;45.50;;;;;;;;;;6249288;28;20128;-65
2022/01/20 11:20:45;;;;;;;84.13;42.05;;;;;;;;;;6262999;28;20179;-64
2022/01/20 11:23:46;;;;;;;88.47;43.47;;;;;;;;;;6260355;28;20505;-65
2022/01/20 11:26:50;;;;;;;84.45;41.03;;;;;;;;;;6258636;28;20087;-64
2022/01/20 11:29:55;;;;;;;77.90;40.58;;;;;;;;;;6263303;28;20049;-66
2022/01/20 11:33:01;;;;;;;81.70;40.67;;;;;;;;;;6255250;28;20057;-65
2022/01/20 11:36:04;;;;;;;74.78;39.25;;;;;;;;;;6256788;28;20056;-65
2022/01/20 11:39:06;;;;;;;74.38;39.25;;;;;;;;;;6256481;28;20133;-65
2022/01/20 11:42:08;;;;;;;76.68;41.22;;;;;;;;;;6257073;28;20497;-64
2022/01/20 11:45:28;;;;;;;76.40;41.33;;;;;;;;;;6260806;28;20045;-64
2022/01/20 11:48:30;;;;;;;68.55;37.30;;;;;;;;;;6261159;28;20079;-64
2022/01/20 11:51:45;;;;;;;73.10;38.85;;;;;;;;;;6257005;28;20166;-64
2022/01/20 11:54:47;;;;;;;78.43;41.33;;;;;;;;;;6258705;28;20520;-65
2022/01/20 11:57:50;;;;;;;72.10;39.40;;;;;;;;;;6258956;28;20885;-64
2022/01/20 12:01:00;;;;;;;76.70;39.97;;;;;;;;;;6254215;28;20050;-65
2022/01/20 12:04:02;;;;;;;72.35;40.78;;;;;;;;;;6260005;28;20406;-65
2022/01/20 12:07:05;;;;;;;75.03;42.45;;;;;;;;;;6257265;28;20060;-64
2022/01/20 12:10:09;;;;;;;73.60;42.20;;;;;;;;;;6261699;28;20141;-64
2022/01/20 12:13:11;;;;;;;;;;;;;;;;;;6261583;28;20069;-64
2022/01/20 12:16:18;;;;;;;71.93;41.10;;;;;;;;;;6256402;28;20003;-65
2022/01/20 12:19:23;;;;;;;73.05;42.47;;;;;;;;;;6255947;28;20163;-65
2022/01/20 12:22:24;;;;;;;77.65;42.42;;;;;;;;;;6255770;28;20120;-66
2022/01/20 12:25:27;;;;;;;85.93;46.20;;;;;;;;;;6256488;28;20127;-65
2022/01/20 12:28:30;;;;;;;76.77;44.67;;;;;;;;;;6250893;28;20060;-65
2022/01/20 12:31:34;;;;;;;73.28;42.55;;;;;;;;;;6262672;28;20057;-66
2022/01/20 12:34:35;;;;;;;79.07;42.53;;;;;;;;;;6259667;28;20458;-66
2022/01/20 12:37:38;;;;;;;78.22;42.47;;;;;;;;;;6257122;28;20546;-65
2022/01/20 12:40:40;;;;;;;82.78;45.13;;;;;;;;;;6264654;28;20136;-65
2022/01/20 12:43:44;;;;;;;74.13;41.45;;;;;;;;;;6263606;28;20132;-67
2022/01/20 12:46:47;;;;;;;80.22;43.65;;;;;;;;;;6257487;28;20093;-64
2022/01/20 12:49:54;;;;;;;78.53;42.13;;;;;;;;;;6261648;28;20604;-65
2022/01/20 12:52:56;;;;;;;83.03;42.85;;;;;;;;;;6258707;28;20501;-65
2022/01/20 12:55:58;;;;;;;77.97;43.15;;;;;;;;;;6260801;28;20163;-65
2022/01/20 12:58:59;;;;;;;81.07;44.03;;;;;;;;;;6256494;28;20053;-64
2022/01/20 13:02:06;;;;;;;86.78;44.63;;;;;;;;;;6261071;28;20175;-66
2022/01/20 13:05:08;;;;;;;83.78;45.42;;;;;;;;;;6261597;28;20045;-65
2022/01/20 13:08:10;;;;;;;85.38;46.38;;;;;;;;;;6256732;28;20048;-65
2022/01/20 13:11:15;;;;;;;77.30;43.20;;;;;;;;;;6258118;28;20124;-65
2022/01/20 13:14:17;;;;;;;80.32;43.80;;;;;;;;;;6259225;28;20067;-66
2022/01/20 13:17:22;;;;;;;81.20;44.95;;;;;;;;;;6262863;28;20169;-62
2022/01/20 13:20:24;;;;;;;80.47;45.13;;;;;;;;;;6260600;28;20050;-65
2022/01/20 13:26:47;;;;;;;83.97;47.75;;;;;;;;;;6259417;28;20053;-63
2022/01/20 13:29:49;;;;;;;90.28;48.67;;;;;;;;;;6256822;28;20073;-64
2022/01/20 13:32:52;;;;;;;87.53;48.63;;;;;;;;;;6256549;28;20053;-63
2022/01/20 13:35:56;;;;;;;85.45;48.67;;;;;;;;;;6261682;28;20171;-62
2022/01/20 13:39:00;;;;;;;85.60;50.65;;;;;;;;;;6257108;28;20138;-63
2022/01/20 13:42:20;;;;;;;87.07;50.42;;;;;;;;;;6260350;28;20052;-63
2022/01/20 13:45:22;;;;;;;83.90;48.70;;;;;;;;;;6259179;28;20056;-64
2022/01/20 13:48:32;;;;;;;82.03;49.10;;;;;;;;;;6260339;28;20050;-63
2022/01/20 13:51:33;;;;;;;79.32;47.92;;;;;;;;;;6260173;28;20525;-62
2022/01/20 13:54:46;;;;;;;79.32;47.05;;;;;;;;;;6261716;28;20046;-65
2022/01/20 13:57:47;;;;;;;86.03;49.08;;;;;;;;;;6259059;28;20462;-63
2022/01/20 14:00:49;;;;;;;85.88;50.90;;;;;;;;;;6257171;28;20119;-64
2022/01/20 14:03:52;;;;;;;79.95;48.08;;;;;;;;;;6261677;28;20175;-65
2022/01/20 14:06:54;;;;;;;77.25;46.90;;;;;;;;;;6261446;28;20238;-65
2022/01/20 14:09:56;;;;;;;80.65;47.28;;;;;;;;;;6259138;28;20061;-64
2022/01/20 14:12:58;;;;;;;80.15;48.15;;;;;;;;;;6263932;28;20564;-64
2022/01/20 14:16:01;;;;;;;85.15;47.58;;;;;;;;;;6260353;28;20134;-64
2022/01/20 14:19:06;;;;;;;130.85;50.17;;;;;;;;;;6261290;28;20056;-64
2022/01/20 14:22:08;;;;;;;79.20;45.25;;;;;;;;;;6259535;28;20175;-65
2022/01/20 14:25:11;;;;;;;85.90;48.78;;;;;;;;;;6260914;28;20044;-64
2022/01/20 14:28:13;;;;;;;82.65;47.92;;;;;;;;;;6264234;28;20049;-64
2022/01/20 14:31:15;;;;;;;81.30;46.20;;;;;;;;;;6258319;28;20431;-63
2022/01/20 14:34:18;;;;;;;81.55;45.58;;;;;;;;;;6258551;28;20072;-63
2022/01/20 14:37:19;;;;;;;80.10;45.55;;;;;;;;;;6256215;28;20069;-63
2022/01/20 14:40:23;;;;;;;89.70;46.58;;;;;;;;;;6256049;28;20436;-64
2022/01/20 14:43:24;;;;;;;80.78;46.60;;;;;;;;;;6256099;28;20132;-63
2022/01/20 14:46:26;;;;;;;83.82;47.47;;;;;;;;;;6261621;28;20084;-63
2022/01/20 14:49:29;;;;;;;85.03;47.85;;;;;;;;;;6267609;28;20133;-61
2022/01/20 14:52:31;;;;;;;88.45;49.60;;;;;;;;;;6267886;28;20118;-62
2022/01/20 14:55:32;;;;;;;83.78;47.70;;;;;;;;;;6261409;28;20053;-63
2022/01/20 14:58:34;;;;;;;91.90;49.42;;;;;;;;;;6263706;28;20111;-63
2022/01/20 15:01:37;;;;;;;90.35;49.80;;;;;;;;;;6265361;28;20122;-66
2022/01/20 15:04:40;;;;;;;91.55;51.30;;;;;;;;;;6266052;28;20517;-67
2022/01/20 15:07:41;;;;;;;90.57;50.38;;;;;;;;;;6262860;28;20119;-65
2022/01/20 15:10:43;;;;;;;86.60;49.22;;;;;;;;;;6263271;28;20073;-67
2022/01/20 15:13:45;;;;;;;93.78;50.13;;;;;;;;;;6261624;28;20056;-63
2022/01/20 15:16:46;;;;;;;90.25;50.50;;;;;;;;;;6262694;28;20053;-65
2022/01/20 15:19:49;;;;;;;88.68;49.92;;;;;;;;;;6255308;28;20140;-67
2022/01/20 15:22:51;;;;;;;87.22;49.83;;;;;;;;;;6256284;28;20136;-65
2022/01/20 15:25:52;;;;;;;89.68;47.70;;;;;;;;;;6260288;28;20064;-65
2022/01/20 15:28:58;;;;;;;87.18;47.05;;;;;;;;;;6255513;28;20561;-64
2022/01/20 15:31:59;;;;;;;88.22;46.17;;;;;;;;;;6253987;28;20056;-64
2022/01/20 15:35:03;;;;;;;88.45;45.03;;;;;;;;;;6253442;28;20414;-65
2022/01/20 15:38:05;;;;;;;89.80;44.67;;;;;;;;;;6250969;28;20049;-64
2022/01/20 15:41:07;;;;;;;86.10;46.30;;;;;;;;;;6258688;28;20136;-65
2022/01/20 15:44:09;;;;;;;86.43;45.75;;;;;;;;;;6260159;28;20042;-64
2022/01/20 15:47:10;;;;;;;87.45;44.50;;;;;;;;;;6255241;28;20127;-65
2022/01/20 15:50:13;;;;;;;87.10;45.30;;;;;;;;;;6257807;28;20049;-64
2022/01/20 15:53:15;;;;;;;86.78;45.58;;;;;;;;;;6251964;28;20092;-65
2022/01/20 15:56:17;;;;;;;83.43;46.40;;;;;;;;;;6254777;28;20553;-66
2022/01/20 15:59:18;;;;;;;87.65;43.67;;;;;;;;;;6260217;28;20115;-64
2022/01/20 16:02:20;;;;;;;88.10;46.55;;;;;;;;;;6253151;28;20076;-64
2022/01/20 16:05:23;;;;;;;87.13;44.50;;;;;;;;;;6258300;28;20053;-62
2022/01/20 16:08:24;;;;;;;83.53;44.97;;;;;;;;;;6263751;28;20172;-65
2022/01/20 16:11:28;;;;;;;87.50;45.65;;;;;;;;;;6250826;28;20041;-64
2022/01/20 16:14:30;;;;;;;81.50;43.80;;;;;;;;;;6253811;28;20136;-64
2022/01/20 16:17:31;;;;;;;87.82;45.60;;;;;;;;;;6255092;28;20100;-64
2022/01/20 16:20:34;;;;;;;88.07;46.08;;;;;;;;;;6253390;28;20512;-64
2022/01/20 16:23:36;;;;;;;89.35;43.92;;;;;;;;;;6250644;28;20099;-64
2022/01/20 16:26:37;;;;;;;87.82;44.25;;;;;;;;;;6257215;28;20383;-64
2022/01/20 16:29:39;;;;;;;85.00;45.58;;;;;;;;;;6248508;28;20045;-64
2022/01/20 16:32:41;;;;;;;83.55;43.60;;;;;;;;;;6254913;28;20175;-65
2022/01/20 16:35:44;;;;;;;82.45;44.47;;;;;;;;;;6251542;28;20143;-65
2022/01/20 16:38:45;;;;;;;86.03;45.65;;;;;;;;;;6252793;28;20251;-64
2022/01/20 16:41:47;;;;;;;81.93;42.95;;;;;;;;;;6252340;28;20045;-65
2022/01/20 16:44:48;;;;;;;85.28;43.38;;;;;;;;;;6254862;28;20073;-64
2022/01/20 16:47:52;;;;;;;86.72;44.55;;;;;;;;;;6236164;28;20128;-64
2022/01/20 16:50:58;;;;;;;84.72;43.60;;;;;;;;;;6259577;28;20424;-64
2022/01/20 16:53:59;;;;;;;87.15;44.42;;;;;;;;;;6248486;28;20056;-64
2022/01/20 16:57:01;;;;;;;84.00;43.35;;;;;;;;;;6255889;28;20130;-64
2022/01/20 17:00:04;;;;;;;84.82;45.05;;;;;;;;;;6251286;28;20139;-64
2022/01/20 17:03:12;;;;;;;84.17;44.23;;;;;;;;;;6254092;28;20049;-64
2022/01/20 17:06:15;;;;;;;77.43;41.88;;;;;;;;;;6254456;28;20489;-64
2022/01/20 17:09:17;;;;;;;86.65;44.25;;;;;;;;;;6254137;28;20068;-64
2022/01/20 17:12:20;;;;;;;81.60;42.83;;;;;;;;;;6250976;28;20472;-65
2022/01/20 17:15:22;;;;;;;82.03;42.97;;;;;;;;;;6257523;28;20390;-64
2022/01/20 17:18:25;;;;;;;79.65;41.83;;;;;;;;;;6250865;28;20470;-64
2022/01/20 17:21:28;;;;;;;78.10;42.38;;;;;;;;;;6256260;28;20044;-64
2022/01/20 17:24:29;;;;;;;83.15;42.50;;;;;;;;;;6260355;28;20185;-64
2022/01/20 17:27:31;;;;;;;74.80;41.08;;;;;;;;;;6257038;28;20052;-64
2022/01/20 17:30:33;;;;;;;82.15;41.17;;;;;;;;;;6256498;28;20140;-64
2022/01/20 17:33:34;;;;;;;84.88;42.38;;;;;;;;;;6257165;28;20808;-65
2022/01/20 17:36:39;;;;;;;80.10;42.58;;;;;;;;;;6252746;28;20673;-64
2022/01/20 17:39:41;;;;;;;85.43;42.88;;;;;;;;;;6255718;28;20061;-64
2022/01/20 17:42:43;;;;;;;89.15;44.45;;;;;;;;;;6257660;28;20076;-64
2022/01/20 17:45:45;;;;;;;85.45;44.97;;;;;;;;;;6258086;28;20183;-63
2022/01/20 17:48:47;;;;;;;98.88;50.67;;;;;;;;;;6257704;28;20386;-64
2022/01/20 17:51:50;;;;;;;88.13;44.17;;;;;;;;;;6256647;28;20106;-64
2022/01/20 17:54:52;;;;;;;98.80;50.40;;;;;;;;;;6251592;28;20060;-64
2022/01/20 17:57:54;;;;;;;114.85;56.40;;;;;;;;;;6252401;28;20188;-64
2022/01/20 18:00:55;;;;;;;87.07;44.50;;;;;;;;;;6252837;28;20045;-63
2022/01/20 18:03:57;;;;;;;92.47;44.33;;;;;;;;;;6248998;28;20141;-65
2022/01/20 18:07:00;;;;;;;82.28;42.90;;;;;;;;;;6249925;28;20088;-65
2022/01/20 18:10:02;;;;;;;87.05;45.47;;;;;;;;;;6260640;28;20060;-66
2022/01/20 18:13:04;;;;;;;82.93;44.90;;;;;;;;;;6258354;28;20049;-64
2022/01/20 18:16:06;;;;;;;85.30;42.90;;;;;;;;;;6253000;28;20132;-64
2022/01/20 18:19:08;;;;;;;81.15;42.75;;;;;;;;;;6254502;28;20156;-64
2022/01/20 18:22:11;;;;;;;89.00;43.95;;;;;;;;;;6253292;28;20524;-65
2022/01/20 18:25:15;;;;;;;85.80;45.90;;;;;;;;;;6262651;28;20076;-64
2022/01/20 18:28:16;;;;;;;88.10;45.50;;;;;;;;;;6266081;28;20239;-65
2022/01/20 18:31:19;;;;;;;87.25;46.05;;;;;;;;;;6279979;28;20126;-65
2022/01/20 18:34:22;;;;;;;92.93;46.35;;;;;;;;;;6278723;28;20140;-64
2022/01/20 18:37:25;;;;;;;92.35;47.28;;;;;;;;;;6272855;28;20067;-64
2022/01/20 18:40:27;;;;;;;89.82;45.60;;;;;;;;;;6279652;28;20817;-64